Time;durP1;ratioP1;P1;durP2;ratioP2;P2;SDS_P1;SDS_P2;PMS_P1;PMS_P2;Temp;Humidity;BMP_temperature;BMP_pressure;BME280_temperature;BME280_humidity;BME280_pressure;Samples;Min_cycle;Max_cycle;Signal;HPM_P1;HPM_P2
2021/01/24 00:01:08;;;;;;;21.77;5.15;;;;;;;;;;4925876;28;20652;-88
2021/01/24 00:04:00;;;;;;;25.08;4.55;;;;;;;;;;4940969;28;20039;-88
2021/01/24 00:06:26;;;;;;;26.15;4.78;;;;;;;;;;4945537;28;20566;-89
2021/01/24 00:08:57;;;;;;;23.02;4.00;;;;;;;;;;4869924;28;20050;-88
2021/01/24 00:11:25;;;;;;;22.52;4.63;;;;;;;;;;4967338;28;20038;-88
2021/01/24 00:13:52;;;;;;;22.52;4.90;;;;;;;;;;4951688;28;21332;-89
2021/01/24 00:16:20;;;;;;;23.27;5.60;;;;;;;;;;4973355;28;20049;-89
2021/01/24 00:18:50;;;;;;;28.13;5.40;;;;;;;;;;4944514;28;20665;-89
2021/01/24 00:21:20;;;;;;;21.52;4.35;;;;;;;;;;4965790;28;20038;-89
2021/01/24 00:23:50;;;;;;;24.83;4.80;;;;;;;;;;5007484;28;20588;-88
2021/01/24 00:26:19;;;;;;;21.27;4.47;;;;;;;;;;4968952;28;20052;-88
2021/01/24 00:28:45;;;;;;;19.45;4.00;;;;;;;;;;4997409;28;20029;-87
2021/01/24 00:31:13;;;;;;;24.83;5.30;;;;;;;;;;4954240;28;20152;-87
2021/01/24 00:33:46;;;;;;;26.98;5.13;;;;;;;;;;5008189;28;20614;-88
2021/01/24 00:36:15;;;;;;;20.25;3.90;;;;;;;;;;5014451;28;20033;-87
2021/01/24 00:38:43;;;;;;;20.55;4.13;;;;;;;;;;4963782;28;20057;-89
2021/01/24 00:41:11;;;;;;;20.15;3.83;;;;;;;;;;4940414;28;20049;-90
2021/01/24 00:43:37;;;;;;;20.65;4.18;;;;;;;;;;4969401;28;20049;-89
2021/01/24 00:46:04;;;;;;;;;;;;;;;;;;4985252;28;20041;-89
2021/01/24 00:48:35;;;;;;;20.70;3.58;;;;;;;;;;5002703;28;19920;-89
2021/01/24 00:51:07;;;;;;;23.48;4.28;;;;;;;;;;4982283;28;20061;-90
2021/01/24 00:56:29;;;;;;;18.30;3.80;;;;;;;;;;4998146;28;20164;-86
2021/01/24 00:58:59;;;;;;;19.42;3.95;;;;;;;;;;4998688;28;20045;-87
2021/01/24 01:01:28;;;;;;;15.98;3.80;;;;;;;;;;4999404;28;20107;-87
2021/01/24 01:03:57;;;;;;;23.77;3.58;;;;;;;;;;4967674;28;20059;-86
2021/01/24 01:06:25;;;;;;;19.85;4.15;;;;;;;;;;4988101;28;20048;-88
2021/01/24 01:08:53;;;;;;;17.20;3.20;;;;;;;;;;4987200;28;20163;-89
2021/01/24 01:11:22;;;;;;;15.70;3.38;;;;;;;;;;4998307;28;20049;-89
2021/01/24 01:13:51;;;;;;;14.05;2.95;;;;;;;;;;4982733;28;20355;-88
2021/01/24 01:16:20;;;;;;;17.75;3.08;;;;;;;;;;4963475;28;20030;-88
2021/01/24 01:18:53;;;;;;;19.10;3.05;;;;;;;;;;5001241;28;20042;-89
2021/01/24 01:21:22;;;;;;;14.40;3.10;;;;;;;;;;4982840;28;20045;-89
2021/01/24 01:23:51;;;;;;;15.65;3.17;;;;;;;;;;4976313;28;20056;-89
2021/01/24 01:26:20;;;;;;;18.45;3.33;;;;;;;;;;4989105;28;20037;-89
2021/01/24 01:28:48;;;;;;;21.38;3.63;;;;;;;;;;4983805;28;20045;-89
2021/01/24 01:31:17;;;;;;;16.88;3.47;;;;;;;;;;4974870;28;20045;-89
2021/01/24 01:33:46;;;;;;;20.83;3.25;;;;;;;;;;5008251;28;20072;-88
2021/01/24 01:36:13;;;;;;;15.32;3.20;;;;;;;;;;4980053;28;20052;-87
2021/01/24 01:38:40;;;;;;;16.27;3.20;;;;;;;;;;4976764;28;20533;-88
2021/01/24 01:41:07;;;;;;;16.27;3.42;;;;;;;;;;4973364;28;20053;-89
2021/01/24 01:43:36;;;;;;;21.90;3.88;;;;;;;;;;4999426;28;20052;-89
2021/01/24 01:46:08;;;;;;;17.88;3.72;;;;;;;;;;4978985;28;20076;-89
2021/01/24 01:48:36;;;;;;;18.05;3.03;;;;;;;;;;4982709;28;20022;-89
2021/01/24 01:51:05;;;;;;;15.98;2.75;;;;;;;;;;4962845;28;20053;-88
2021/01/24 01:53:55;;;;;;;13.65;2.63;;;;;;;;;;4983274;28;20046;-89
2021/01/24 01:56:24;;;;;;;17.35;2.85;;;;;;;;;;4979769;28;20132;-88
2021/01/24 01:59:10;;;;;;;19.73;2.90;;;;;;;;;;4967000;28;20034;-88
2021/01/24 02:01:57;;;;;;;16.30;2.72;;;;;;;;;;4946591;28;20049;-88
2021/01/24 02:04:48;;;;;;;18.65;3.20;;;;;;;;;;4957692;28;20038;-88
2021/01/24 02:07:37;;;;;;;14.57;2.33;;;;;;;;;;4932965;28;20046;-87
2021/01/24 02:10:15;;;;;;;16.17;2.88;;;;;;;;;;4941463;28;20038;-89
2021/01/24 02:12:58;;;;;;;18.63;3.33;;;;;;;;;;4952438;28;20084;-90
2021/01/24 02:15:28;;;;;;;13.70;2.60;;;;;;;;;;4942540;28;20041;-90
2021/01/24 02:18:02;;;;;;;14.05;2.72;;;;;;;;;;4965152;28;20062;-90
2021/01/24 02:20:47;;;;;;;16.83;3.08;;;;;;;;;;4975556;28;20026;-89
2021/01/24 02:23:17;;;;;;;17.58;3.05;;;;;;;;;;4964807;28;20034;-89
2021/01/24 02:26:03;;;;;;;14.35;3.03;;;;;;;;;;4931497;28;20034;-90
2021/01/24 02:28:53;;;;;;;14.55;2.88;;;;;;;;;;4963562;28;20715;-89
2021/01/24 02:31:27;;;;;;;16.52;2.72;;;;;;;;;;4936345;28;20041;-90
2021/01/24 02:33:56;;;;;;;18.40;2.67;;;;;;;;;;4939119;28;20066;-89
2021/01/24 02:36:35;;;;;;;12.30;2.17;;;;;;;;;;4945552;28;20142;-88
2021/01/24 02:39:07;;;;;;;15.38;2.88;;;;;;;;;;4953163;28;20895;-88
2021/01/24 02:41:35;;;;;;;17.27;3.00;;;;;;;;;;4939802;28;20434;-89
2021/01/24 02:44:09;;;;;;;22.75;3.10;;;;;;;;;;4954654;28;21432;-88
2021/01/24 02:46:38;;;;;;;13.13;2.50;;;;;;;;;;4938621;28;20809;-89
2021/01/24 02:49:05;;;;;;;13.75;2.88;;;;;;;;;;4923656;28;20062;-88
2021/01/24 02:51:35;;;;;;;15.18;2.90;;;;;;;;;;4954883;28;20042;-90
2021/01/24 02:54:05;;;;;;;18.95;3.15;;;;;;;;;;4984473;28;20095;-89
2021/01/24 02:56:34;;;;;;;18.83;3.60;;;;;;;;;;4969281;28;20073;-89
2021/01/24 02:59:04;;;;;;;17.08;3.08;;;;;;;;;;4983277;28;20707;-90
2021/01/24 03:01:32;;;;;;;15.38;2.97;;;;;;;;;;4975320;28;20042;-89
2021/01/24 03:04:02;;;;;;;17.08;3.40;;;;;;;;;;4972385;28;20124;-90
2021/01/24 03:06:33;;;;;;;18.30;3.20;;;;;;;;;;4978232;28;20037;-89
2021/01/24 03:09:06;;;;;;;17.20;3.40;;;;;;;;;;4995592;28;20034;-91
2021/01/24 03:11:38;;;;;;;17.45;3.00;;;;;;;;;;4984255;28;20788;-91
2021/01/24 03:14:21;;;;;;;17.38;3.25;;;;;;;;;;4965302;28;20551;-92
2021/01/24 03:16:49;;;;;;;15.13;2.60;;;;;;;;;;4963708;28;20039;-91
2021/01/24 03:19:21;;;;;;;11.25;1.75;;;;;;;;;;4961212;28;20447;-90
2021/01/24 03:21:53;;;;;;;9.57;1.70;;;;;;;;;;4990413;28;20033;-88
2021/01/24 03:24:21;;;;;;;11.85;2.13;;;;;;;;;;4966429;28;20042;-90
2021/01/24 03:26:49;;;;;;;12.10;2.50;;;;;;;;;;4918917;28;20042;-89
2021/01/24 03:29:15;;;;;;;12.65;2.25;;;;;;;;;;4939774;28;20047;-89
2021/01/24 03:31:43;;;;;;;;;;;;;;;;;;4940589;28;20120;-88
2021/01/24 03:34:21;;;;;;;15.82;2.25;;;;;;;;;;4949707;28;20456;-88
2021/01/24 03:36:49;;;;;;;12.57;2.38;;;;;;;;;;4982929;28;20037;-90
2021/01/24 03:39:19;;;;;;;16.42;2.30;;;;;;;;;;4921794;28;20033;-90
2021/01/24 03:41:47;;;;;;;12.90;1.90;;;;;;;;;;4938856;28;20095;-88
2021/01/24 03:44:16;;;;;;;14.23;2.30;;;;;;;;;;4953943;28;20046;-88
2021/01/24 03:46:44;;;;;;;11.32;2.08;;;;;;;;;;4971593;28;20125;-87
2021/01/24 03:49:12;;;;;;;11.82;2.28;;;;;;;;;;4952776;28;20045;-88
2021/01/24 03:51:42;;;;;;;10.50;2.10;;;;;;;;;;4963815;28;20042;-88
2021/01/24 03:54:09;;;;;;;15.48;2.63;;;;;;;;;;4942219;28;20042;-89
2021/01/24 03:56:35;;;;;;;12.40;1.90;;;;;;;;;;4940172;28;20038;-88
2021/01/24 03:59:07;;;;;;;13.30;2.40;;;;;;;;;;4956067;28;20046;-88
2021/01/24 04:01:36;;;;;;;8.70;1.83;;;;;;;;;;4952187;28;20082;-88
2021/01/24 04:04:06;;;;;;;13.18;2.20;;;;;;;;;;4961629;28;20042;-89
2021/01/24 04:06:34;;;;;;;14.93;2.20;;;;;;;;;;4954385;28;20509;-88
2021/01/24 04:09:00;;;;;;;12.50;2.33;;;;;;;;;;4889381;28;20090;-89
2021/01/24 04:11:30;;;;;;;13.82;2.47;;;;;;;;;;4912292;28;20050;-88
2021/01/24 04:13:58;;;;;;;9.85;1.77;;;;;;;;;;4919558;28;20595;-88
2021/01/24 04:16:24;;;;;;;12.65;2.10;;;;;;;;;;4911007;28;20053;-88
2021/01/24 04:18:52;;;;;;;6.57;1.10;;;;;;;;;;4918972;28;20049;-87
2021/01/24 04:21:24;;;;;;;4.63;0.70;;;;;;;;;;4935771;28;20064;-87
2021/01/24 04:23:54;;;;;;;3.28;0.40;;;;;;;;;;4939528;28;20158;-88
2021/01/24 04:26:24;;;;;;;5.18;0.40;;;;;;;;;;4894225;28;20103;-88
2021/01/24 04:28:50;;;;;;;6.22;0.70;;;;;;;;;;4889972;28;20094;-87
2021/01/24 04:31:19;;;;;;;6.53;0.90;;;;;;;;;;4905689;28;20082;-88
2021/01/24 04:33:45;;;;;;;3.15;0.60;;;;;;;;;;4919896;28;20535;-88
2021/01/24 04:36:14;;;;;;;4.50;0.63;;;;;;;;;;4907989;28;20061;-88
2021/01/24 04:38:42;;;;;;;2.38;0.47;;;;;;;;;;4895563;28;20042;-88
2021/01/24 04:41:10;;;;;;;3.22;0.40;;;;;;;;;;4889896;28;20035;-88
2021/01/24 04:43:39;;;;;;;3.17;0.47;;;;;;;;;;4891098;28;21251;-88
2021/01/24 04:46:07;;;;;;;3.25;0.50;;;;;;;;;;4891484;28;20036;-88
2021/01/24 04:48:34;;;;;;;7.60;0.70;;;;;;;;;;4898719;28;20024;-88
2021/01/24 04:51:05;;;;;;;3.83;0.60;;;;;;;;;;4900659;28;20044;-88
2021/01/24 04:53:37;;;;;;;4.63;0.57;;;;;;;;;;4900780;28;20046;-89
2021/01/24 04:56:05;;;;;;;2.78;0.40;;;;;;;;;;4867112;28;20050;-88
2021/01/24 04:58:33;;;;;;;3.72;0.30;;;;;;;;;;4915154;28;20063;-89
2021/01/24 05:01:02;;;;;;;3.42;0.55;;;;;;;;;;4947317;28;20052;-89
2021/01/24 05:03:32;;;;;;;3.17;0.50;;;;;;;;;;4924601;28;20042;-88
2021/01/24 05:06:00;;;;;;;3.38;0.40;;;;;;;;;;4890494;28;20051;-89
2021/01/24 05:08:30;;;;;;;2.88;0.60;;;;;;;;;;4951770;28;20501;-87
2021/01/24 05:11:03;;;;;;;4.78;0.60;;;;;;;;;;4955815;28;20286;-89
2021/01/24 05:13:29;;;;;;;4.90;0.60;;;;;;;;;;4930557;28;20047;-89
2021/01/24 05:15:57;;;;;;;5.20;0.70;;;;;;;;;;4916219;28;20038;-88
2021/01/24 05:18:29;;;;;;;4.68;0.80;;;;;;;;;;4915876;28;20513;-89
2021/01/24 05:20:57;;;;;;;7.25;1.17;;;;;;;;;;4912382;28;20042;-88
2021/01/24 05:23:30;;;;;;;5.93;1.17;;;;;;;;;;4883519;28;21596;-88
2021/01/24 05:25:59;;;;;;;9.80;1.23;;;;;;;;;;4915576;28;20057;-88
2021/01/24 05:28:36;;;;;;;7.70;1.20;;;;;;;;;;4929621;28;20049;-89
2021/01/24 05:31:06;;;;;;;5.43;0.93;;;;;;;;;;4955104;28;20054;-88
2021/01/24 05:33:38;;;;;;;6.68;1.42;;;;;;;;;;4956943;28;20034;-89
2021/01/24 05:36:08;;;;;;;7.80;1.13;;;;;;;;;;4945276;28;20116;-88
2021/01/24 05:38:37;;;;;;;8.27;1.30;;;;;;;;;;4921705;28;20073;-89
2021/01/24 05:41:11;;;;;;;6.75;1.30;;;;;;;;;;4915696;28;20051;-89
2021/01/24 05:43:44;;;;;;;7.97;1.15;;;;;;;;;;4931984;28;20038;-90
2021/01/24 05:46:12;;;;;;;10.55;1.45;;;;;;;;;;4948192;28;20044;-89
2021/01/24 05:48:52;;;;;;;8.00;1.42;;;;;;;;;;4953596;28;20057;-88
2021/01/24 05:51:22;;;;;;;8.45;1.30;;;;;;;;;;4921826;28;20042;-88
2021/01/24 05:53:51;;;;;;;8.77;1.60;;;;;;;;;;4967581;28;20144;-88
2021/01/24 05:56:21;;;;;;;7.93;1.30;;;;;;;;;;4963215;28;20089;-87
2021/01/24 05:59:04;;;;;;;9.15;1.42;;;;;;;;;;4944550;28;20046;-88
2021/01/24 06:01:32;;;;;;;10.70;1.90;;;;;;;;;;4920884;28;20041;-88
2021/01/24 06:04:01;;;;;;;12.93;1.80;;;;;;;;;;4925771;28;20067;-88
2021/01/24 06:06:31;;;;;;;11.77;2.15;;;;;;;;;;4939379;28;20077;-88
2021/01/24 06:08:58;;;;;;;11.38;1.95;;;;;;;;;;4964316;28;20405;-88
2021/01/24 06:11:29;;;;;;;11.30;1.70;;;;;;;;;;4967472;28;20046;-88
2021/01/24 06:13:59;;;;;;;9.27;1.70;;;;;;;;;;4948473;28;20065;-89
2021/01/24 06:16:35;;;;;;;9.98;1.80;;;;;;;;;;4931064;28;20046;-88
2021/01/24 06:19:05;;;;;;;10.85;2.17;;;;;;;;;;4970549;28;20049;-89
2021/01/24 06:21:41;;;;;;;11.88;2.10;;;;;;;;;;4974077;28;20068;-88
2021/01/24 06:24:22;;;;;;;12.85;1.90;;;;;;;;;;4966355;28;20426;-88
2021/01/24 06:26:53;;;;;;;11.73;2.45;;;;;;;;;;4983993;28;20034;-88
2021/01/24 06:29:22;;;;;;;9.70;1.73;;;;;;;;;;4966808;28;20098;-89
2021/01/24 06:31:52;;;;;;;10.20;2.03;;;;;;;;;;4968268;28;20100;-88
2021/01/24 06:34:40;;;;;;;13.07;2.13;;;;;;;;;;4970115;28;20503;-89
2021/01/24 06:37:23;;;;;;;9.57;2.00;;;;;;;;;;4967537;28;20022;-89
2021/01/24 06:39:54;;;;;;;14.40;2.17;;;;;;;;;;4962411;28;20044;-88
2021/01/24 06:42:41;;;;;;;11.82;2.15;;;;;;;;;;4983362;28;20442;-89
2021/01/24 06:45:27;;;;;;;8.85;1.60;;;;;;;;;;4983373;28;20053;-88
2021/01/24 06:47:56;;;;;;;9.80;1.63;;;;;;;;;;4949586;28;20505;-88
2021/01/24 06:50:39;;;;;;;8.55;1.63;;;;;;;;;;4976961;28;20049;-89
2021/01/24 06:53:10;;;;;;;10.75;1.52;;;;;;;;;;4980964;28;20034;-88
2021/01/24 06:55:41;;;;;;;10.32;1.95;;;;;;;;;;4983265;28;20041;-88
2021/01/24 06:58:27;;;;;;;9.27;1.48;;;;;;;;;;4992379;28;20022;-88
2021/01/24 07:01:15;;;;;;;10.48;1.75;;;;;;;;;;5008123;28;20033;-87
2021/01/24 07:03:45;;;;;;;9.80;1.70;;;;;;;;;;4981689;28;20037;-88
2021/01/24 07:06:32;;;;;;;9.85;1.88;;;;;;;;;;4979485;28;20051;-87
2021/01/24 07:09:01;;;;;;;12.88;1.88;;;;;;;;;;4987027;28;20060;-87
2021/01/24 07:11:46;;;;;;;9.45;1.80;;;;;;;;;;4950971;28;20172;-88
2021/01/24 07:14:34;;;;;;;10.88;1.90;;;;;;;;;;5008099;28;20041;-87
2021/01/24 07:17:16;;;;;;;10.88;1.77;;;;;;;;;;5011627;28;20060;-86
2021/01/24 07:19:50;;;;;;;9.13;1.70;;;;;;;;;;5001455;28;20045;-87
2021/01/24 07:22:19;;;;;;;10.05;1.67;;;;;;;;;;4995266;28;20053;-85
2021/01/24 07:24:47;;;;;;;7.95;1.75;;;;;;;;;;5000595;28;20044;-86
2021/01/24 07:27:29;;;;;;;10.38;1.80;;;;;;;;;;5000284;28;20091;-89
2021/01/24 07:30:07;;;;;;;9.38;1.30;;;;;;;;;;4994497;28;20037;-87
2021/01/24 07:32:34;;;;;;;7.70;1.52;;;;;;;;;;5007768;28;20048;-86
2021/01/24 07:35:08;;;;;;;9.05;1.58;;;;;;;;;;4995196;28;20073;-86
2021/01/24 07:37:36;;;;;;;8.52;1.30;;;;;;;;;;4998400;28;20044;-86
2021/01/24 07:40:07;;;;;;;9.25;1.52;;;;;;;;;;4984379;28;20036;-89
2021/01/24 07:42:35;;;;;;;8.13;1.35;;;;;;;;;;4994967;28;20049;-87
2021/01/24 07:45:07;;;;;;;9.00;1.50;;;;;;;;;;5010875;28;20029;-86
2021/01/24 07:47:39;;;;;;;8.98;1.67;;;;;;;;;;5010343;28;20116;-85
2021/01/24 07:50:07;;;;;;;10.15;1.60;;;;;;;;;;4951607;28;20076;-89
2021/01/24 07:52:44;;;;;;;9.55;1.63;;;;;;;;;;5006519;28;21469;-87
2021/01/24 07:55:13;;;;;;;9.82;1.52;;;;;;;;;;4999348;28;20055;-87
2021/01/24 07:57:42;;;;;;;7.82;1.30;;;;;;;;;;5003391;28;20021;-87
2021/01/24 08:00:10;;;;;;;6.93;1.10;;;;;;;;;;4940093;28;20065;-89
2021/01/24 08:02:39;;;;;;;10.95;1.70;;;;;;;;;;4991200;28;20037;-88
2021/01/24 08:05:07;;;;;;;7.35;1.35;;;;;;;;;;5007711;28;20488;-90
2021/01/24 08:07:37;;;;;;;9.75;1.55;;;;;;;;;;4998494;28;20038;-88
2021/01/24 08:10:04;;;;;;;8.50;1.33;;;;;;;;;;5002284;28;20862;-88
2021/01/24 08:12:32;;;;;;;10.90;1.70;;;;;;;;;;4997307;28;20060;-88
2021/01/24 08:15:01;;;;;;;7.70;1.45;;;;;;;;;;5014675;28;20026;-88
2021/01/24 08:17:34;;;;;;;7.75;1.40;;;;;;;;;;5020220;28;20109;-88
2021/01/24 08:20:07;;;;;;;9.13;1.60;;;;;;;;;;5006688;28;20631;-91
2021/01/24 08:22:38;;;;;;;9.00;1.65;;;;;;;;;;5011448;28;20041;-87
2021/01/24 08:25:07;;;;;;;9.45;1.73;;;;;;;;;;4997869;28;20029;-88
2021/01/24 08:27:36;;;;;;;12.93;2.20;;;;;;;;;;5013270;28;20060;-88
2021/01/24 08:30:05;;;;;;;9.60;1.73;;;;;;;;;;5013230;28;20033;-89
2021/01/24 08:32:33;;;;;;;8.95;1.52;;;;;;;;;;4992534;28;20049;-88
2021/01/24 08:35:00;;;;;;;13.25;1.98;;;;;;;;;;4980516;28;20465;-89
2021/01/24 08:37:28;;;;;;;16.10;2.30;;;;;;;;;;4992395;28;20037;-88
2021/01/24 08:39:58;;;;;;;14.27;1.83;;;;;;;;;;4999193;28;20032;-89
2021/01/24 08:42:27;;;;;;;14.18;2.20;;;;;;;;;;4964640;28;20798;-88
2021/01/24 08:45:02;;;;;;;9.60;1.90;;;;;;;;;;5012050;28;20045;-89
2021/01/24 08:47:31;;;;;;;12.02;2.03;;;;;;;;;;4997615;28;20099;-88
2021/01/24 08:50:06;;;;;;;9.77;1.60;;;;;;;;;;4999879;28;20068;-89
2021/01/24 08:52:35;;;;;;;9.93;1.98;;;;;;;;;;4965267;28;20073;-88
2021/01/24 08:55:09;;;;;;;9.15;1.88;;;;;;;;;;4960037;28;20035;-88
2021/01/24 08:57:37;;;;;;;9.45;1.88;;;;;;;;;;4995569;28;20066;-88
2021/01/24 09:00:11;;;;;;;10.57;1.92;;;;;;;;;;5008779;28;20041;-88
2021/01/24 09:02:58;;;;;;;10.90;1.92;;;;;;;;;;5002564;28;20048;-89
2021/01/24 09:05:25;;;;;;;;;;;;;;;;;;4955620;28;20050;-89
2021/01/24 09:07:53;;;;;;;6.95;1.30;;;;;;;;;;4926577;28;20468;-88
2021/01/24 09:10:31;;;;;;;7.63;1.70;;;;;;;;;;4946717;28;20485;-88
2021/01/24 09:13:03;;;;;;;8.30;1.42;;;;;;;;;;4961215;28;20541;-89
2021/01/24 09:15:32;;;;;;;8.40;1.50;;;;;;;;;;4971975;28;20043;-88
2021/01/24 09:18:01;;;;;;;7.15;1.50;;;;;;;;;;4973245;28;20056;-88
2021/01/24 09:20:31;;;;;;;7.18;1.30;;;;;;;;;;4967208;28;20372;-88
2021/01/24 09:22:58;;;;;;;5.70;1.10;;;;;;;;;;4951890;28;20031;-89
2021/01/24 09:25:25;;;;;;;4.55;0.90;;;;;;;;;;4950077;28;20096;-88
2021/01/24 09:27:51;;;;;;;5.97;0.93;;;;;;;;;;4952890;28;20073;-86
2021/01/24 09:30:22;;;;;;;2.97;0.80;;;;;;;;;;4969187;28;20569;-87
2021/01/24 09:32:51;;;;;;;3.65;0.55;;;;;;;;;;4967781;28;20631;-87
2021/01/24 09:35:18;;;;;;;4.00;0.80;;;;;;;;;;4940527;28;20137;-87
2021/01/24 09:37:48;;;;;;;4.60;0.90;;;;;;;;;;4987146;28;20044;-88
2021/01/24 09:40:15;;;;;;;6.00;0.93;;;;;;;;;;5009626;28;20042;-89
2021/01/24 09:42:41;;;;;;;7.47;1.33;;;;;;;;;;5003720;28;20033;-87
2021/01/24 09:45:13;;;;;;;7.07;1.20;;;;;;;;;;5004628;28;20037;-88
2021/01/24 09:47:52;;;;;;;6.47;1.10;;;;;;;;;;4930969;28;20120;-87
2021/01/24 09:50:36;;;;;;;8.43;1.35;;;;;;;;;;4954097;28;20033;-89
2021/01/24 09:53:05;;;;;;;7.63;1.45;;;;;;;;;;5003350;28;20663;-87
2021/01/24 09:55:34;;;;;;;11.85;1.58;;;;;;;;;;4972426;28;20820;-88
2021/01/24 09:58:03;;;;;;;9.90;1.80;;;;;;;;;;4924069;28;20038;-89
2021/01/24 10:00:30;;;;;;;8.95;1.75;;;;;;;;;;4950508;28;20034;-90
2021/01/24 10:02:57;;;;;;;8.77;1.90;;;;;;;;;;4937100;28;20106;-88
2021/01/24 10:05:25;;;;;;;11.13;2.33;;;;;;;;;;4903985;28;21276;-90
2021/01/24 10:07:53;;;;;;;10.02;2.75;;;;;;;;;;4940304;28;20113;-90
2021/01/24 10:10:20;;;;;;;10.88;1.83;;;;;;;;;;4942030;28;20049;-90
2021/01/24 10:12:48;;;;;;;7.13;1.50;;;;;;;;;;4951738;28;20027;-88
2021/01/24 10:15:20;;;;;;;8.48;1.40;;;;;;;;;;4928401;28;20046;-89
2021/01/24 10:17:49;;;;;;;9.15;2.35;;;;;;;;;;4903602;28;20024;-90
2021/01/24 10:20:18;;;;;;;9.93;1.80;;;;;;;;;;4924192;28;20051;-89
2021/01/24 10:22:46;;;;;;;12.43;2.38;;;;;;;;;;4951100;28;20110;-89
2021/01/24 10:25:16;;;;;;;9.32;2.58;;;;;;;;;;4936816;28;20892;-89
2021/01/24 10:27:43;;;;;;;14.20;2.90;;;;;;;;;;4951900;28;20510;-88
2021/01/24 10:30:13;;;;;;;9.30;1.92;;;;;;;;;;4935341;28;20739;-88
2021/01/24 10:32:44;;;;;;;9.38;1.60;;;;;;;;;;4931726;28;20196;-90
2021/01/24 10:35:12;;;;;;;10.65;2.58;;;;;;;;;;4907073;28;20071;-87
2021/01/24 10:37:40;;;;;;;9.50;1.70;;;;;;;;;;4893919;29;20082;-89
2021/01/24 10:40:11;;;;;;;8.75;1.90;;;;;;;;;;4884610;28;20032;-88
2021/01/24 10:42:41;;;;;;;10.07;1.73;;;;;;;;;;4868382;29;20455;-90
2021/01/24 10:45:11;;;;;;;9.07;2.25;;;;;;;;;;4909402;28;20035;-90
2021/01/24 10:48:10;;;;;;;10.35;1.80;;;;;;;;;;4904659;28;20038;-90
2021/01/24 10:50:42;;;;;;;10.50;1.77;;;;;;;;;;4917529;28;20051;-91
2021/01/24 10:53:09;;;;;;;7.80;1.60;;;;;;;;;;4949497;28;20038;-90
2021/01/24 10:55:37;;;;;;;8.27;2.00;;;;;;;;;;4977177;28;20026;-89
2021/01/24 10:58:11;;;;;;;11.35;1.88;;;;;;;;;;4900348;28;20041;-89
2021/01/24 11:00:38;;;;;;;9.23;1.92;;;;;;;;;;4968398;28;20506;-91
2021/01/24 11:03:08;;;;;;;7.22;1.48;;;;;;;;;;4965229;28;20041;-89
2021/01/24 11:05:36;;;;;;;8.77;2.10;;;;;;;;;;4972282;28;20045;-91
2021/01/24 11:08:03;;;;;;;9.07;1.90;;;;;;;;;;4952648;28;20038;-88
2021/01/24 11:10:33;;;;;;;9.90;2.35;;;;;;;;;;4957041;28;20113;-89
2021/01/24 11:13:07;;;;;;;11.00;2.58;;;;;;;;;;4956510;28;20026;-88
2021/01/24 11:15:35;;;;;;;10.32;2.20;;;;;;;;;;4989173;28;20042;-90
2021/01/24 11:18:06;;;;;;;9.48;2.00;;;;;;;;;;4973563;28;20078;-90
2021/01/24 11:20:34;;;;;;;8.93;2.25;;;;;;;;;;4956750;28;20042;-90
2021/01/24 11:23:22;;;;;;;12.00;2.90;;;;;;;;;;4969152;28;20830;-90
2021/01/24 11:25:49;;;;;;;11.23;3.17;;;;;;;;;;4959552;28;20039;-89
2021/01/24 11:28:17;;;;;;;10.45;3.60;;;;;;;;;;4988395;28;20046;-87
2021/01/24 11:30:44;;;;;;;9.95;2.35;;;;;;;;;;4991668;28;20045;-90
2021/01/24 11:33:12;;;;;;;12.25;3.35;;;;;;;;;;4997237;28;20042;-90
2021/01/24 11:35:41;;;;;;;8.90;2.50;;;;;;;;;;4966436;28;20042;-87
2021/01/24 11:38:08;;;;;;;11.07;3.72;;;;;;;;;;4980614;28;20061;-86
2021/01/24 11:40:35;;;;;;;10.75;2.38;;;;;;;;;;4992412;28;20038;-86
2021/01/24 11:43:06;;;;;;;12.52;2.67;;;;;;;;;;4950967;28;20033;-86
2021/01/24 11:45:59;;;;;;;8.30;2.20;;;;;;;;;;4996228;28;20045;-87
2021/01/24 11:48:31;;;;;;;8.65;2.40;;;;;;;;;;4995639;28;20046;-87
2021/01/24 11:50:59;;;;;;;11.73;2.35;;;;;;;;;;4986886;28;20047;-86
2021/01/24 11:53:27;;;;;;;10.93;2.30;;;;;;;;;;5001399;28;20916;-86
2021/01/24 11:55:55;;;;;;;12.48;2.30;;;;;;;;;;5023520;28;20047;-88
2021/01/24 11:58:24;;;;;;;15.23;2.25;;;;;;;;;;5000622;28;20037;-87
2021/01/24 12:00:51;;;;;;;10.98;2.28;;;;;;;;;;4966216;28;20042;-87
2021/01/24 12:03:20;;;;;;;13.43;3.10;;;;;;;;;;4997577;28;20104;-91
2021/01/24 12:05:48;;;;;;;12.05;2.15;;;;;;;;;;4967932;28;20034;-91
2021/01/24 12:08:18;;;;;;;12.45;3.15;;;;;;;;;;4969252;28;20029;-92
2021/01/24 12:10:46;;;;;;;13.25;2.90;;;;;;;;;;4986637;28;20474;-89
2021/01/24 12:13:15;;;;;;;11.68;3.55;;;;;;;;;;5017807;28;20025;-88
2021/01/24 12:15:43;;;;;;;11.57;3.10;;;;;;;;;;4992578;28;20124;-89
2021/01/24 12:18:15;;;;;;;15.23;3.20;;;;;;;;;;5006636;28;20050;-89
2021/01/24 12:20:54;;;;;;;12.27;2.33;;;;;;;;;;4989002;28;20045;-90
2021/01/24 12:23:22;;;;;;;10.88;3.50;;;;;;;;;;4980811;28;20060;-90
2021/01/24 12:25:52;;;;;;;14.07;3.13;;;;;;;;;;4994212;28;20343;-89
2021/01/24 12:28:19;;;;;;;10.73;3.30;;;;;;;;;;5019813;28;20033;-89
2021/01/24 12:30:47;;;;;;;12.43;3.78;;;;;;;;;;5009766;28;20045;-89
2021/01/24 12:33:15;;;;;;;15.20;5.35;;;;;;;;;;4972253;28;20046;-89
2021/01/24 12:35:42;;;;;;;13.52;3.92;;;;;;;;;;4996782;28;20106;-89
2021/01/24 12:38:10;;;;;;;14.20;5.05;;;;;;;;;;4997019;28;20385;-89
2021/01/24 12:40:41;;;;;;;16.48;6.05;;;;;;;;;;5007199;28;20041;-89
2021/01/24 12:43:10;;;;;;;13.55;5.45;;;;;;;;;;4985926;28;20034;-88
2021/01/24 12:45:39;;;;;;;23.40;12.23;;;;;;;;;;5011609;28;20049;-91
2021/01/24 12:48:07;;;;;;;13.98;5.63;;;;;;;;;;4993775;28;20033;-89
2021/01/24 12:50:35;;;;;;;14.90;6.65;;;;;;;;;;4952147;28;20042;-89
2021/01/24 12:53:10;;;;;;;13.43;5.40;;;;;;;;;;4935606;28;20094;-90
2021/01/24 12:55:36;;;;;;;13.20;5.78;;;;;;;;;;4967204;28;20523;-91
2021/01/24 12:58:29;;;;;;;11.02;4.22;;;;;;;;;;4962445;28;20068;-89
2021/01/24 13:00:58;;;;;;;10.88;3.25;;;;;;;;;;5005034;28;20054;-92
2021/01/24 13:03:30;;;;;;;11.50;2.90;;;;;;;;;;5012035;28;20022;-90
2021/01/24 13:05:59;;;;;;;9.45;2.00;;;;;;;;;;4994161;28;20052;-89
2021/01/24 13:11:54;;;;;;;12.70;2.70;;;;;;;;;;4905166;28;20564;-90
2021/01/24 13:23:28;;;;;;;10.43;2.38;;;;;;;;;;4902344;29;20155;-91
2021/01/24 13:45:29;;;;;;;9.50;1.80;;;;;;;;;;4695549;30;20301;-90
2021/01/24 13:51:09;;;;;;;8.43;1.80;;;;;;;;;;5194849;22;20071;-60
2021/01/24 13:53:36;;;;;;;8.40;2.10;;;;;;;;;;5031768;28;20071;-60
2021/01/24 13:56:02;;;;;;;8.15;2.00;;;;;;;;;;5033951;28;20915;-60
2021/01/24 13:58:29;;;;;;;9.60;3.55;;;;;;;;;;5035354;28;20520;-60
2021/01/24 14:00:55;;;;;;;10.10;1.95;;;;;;;;;;5030968;28;20055;-60
2021/01/24 14:03:21;;;;;;;13.30;5.18;;;;;;;;;;5030007;28;20554;-59
2021/01/24 14:05:47;;;;;;;10.73;3.13;;;;;;;;;;5032684;28;20048;-60
2021/01/24 14:08:14;;;;;;;9.13;1.80;;;;;;;;;;5065840;22;20045;-89
2021/01/24 14:10:42;;;;;;;8.73;1.52;;;;;;;;;;5033580;28;20083;-90
2021/01/24 14:13:09;;;;;;;9.63;1.45;;;;;;;;;;5062212;28;20036;-89
2021/01/24 14:15:37;;;;;;;8.60;2.25;;;;;;;;;;5059494;28;20048;-88
2021/01/24 14:18:07;;;;;;;12.70;6.15;;;;;;;;;;5050834;28;20040;-88
2021/01/24 14:20:35;;;;;;;9.55;1.73;;;;;;;;;;5039618;28;20048;-88
2021/01/24 14:23:09;;;;;;;8.25;1.85;;;;;;;;;;5041895;28;20045;-88
2021/01/24 14:25:37;;;;;;;10.52;3.72;;;;;;;;;;5044580;28;20071;-89
2021/01/24 14:28:06;;;;;;;11.48;4.30;;;;;;;;;;5038199;28;20037;-88
2021/01/24 14:30:33;;;;;;;9.48;2.85;;;;;;;;;;5016277;28;20050;-89
2021/01/24 14:33:05;;;;;;;9.73;2.10;;;;;;;;;;5040988;28;20040;-86
2021/01/24 14:35:32;;;;;;;10.82;3.13;;;;;;;;;;5036752;28;20043;-87
2021/01/24 14:37:59;;;;;;;7.35;1.70;;;;;;;;;;5030729;28;20072;-87
2021/01/24 14:40:25;;;;;;;8.90;3.22;;;;;;;;;;5031999;28;21131;-87
2021/01/24 14:42:54;;;;;;;8.02;1.67;;;;;;;;;;5030156;28;20048;-87
2021/01/24 14:45:21;;;;;;;6.97;1.45;;;;;;;;;;5036384;28;20387;-87
2021/01/24 14:47:48;;;;;;;10.70;1.77;;;;;;;;;;5033515;28;20123;-87
2021/01/24 14:50:15;;;;;;;9.02;1.50;;;;;;;;;;5024153;28;20055;-87
2021/01/24 14:52:41;;;;;;;10.48;2.92;;;;;;;;;;5013540;28;20078;-88
2021/01/24 14:55:09;;;;;;;6.45;1.63;;;;;;;;;;5012816;28;20029;-87
2021/01/24 14:57:44;;;;;;;7.35;1.80;;;;;;;;;;5023628;28;20155;-88
2021/01/24 15:00:19;;;;;;;5.78;1.20;;;;;;;;;;4984516;28;20382;-90
2021/01/24 15:02:51;;;;;;;6.22;1.40;;;;;;;;;;4978763;28;20074;-89
2021/01/24 15:05:34;;;;;;;5.80;1.23;;;;;;;;;;4977263;28;20473;-88
2021/01/24 15:08:11;;;;;;;5.65;1.20;;;;;;;;;;5033130;28;20812;-89
2021/01/24 15:10:39;;;;;;;7.63;1.33;;;;;;;;;;5016669;28;20056;-90
2021/01/24 15:13:09;;;;;;;10.98;1.58;;;;;;;;;;5007432;28;20029;-89
2021/01/24 15:15:54;;;;;;;9.35;1.55;;;;;;;;;;5027025;28;20083;-89
2021/01/24 15:18:32;;;;;;;6.03;1.37;;;;;;;;;;4995844;27;20598;-91
2021/01/24 15:21:00;;;;;;;7.57;1.35;;;;;;;;;;5007130;28;20131;-89
2021/01/24 15:23:30;;;;;;;8.90;1.17;;;;;;;;;;4998056;28;20046;-90
2021/01/24 15:25:57;;;;;;;6.13;0.80;;;;;;;;;;5002084;28;20127;-89
2021/01/24 15:28:47;;;;;;;5.40;1.25;;;;;;;;;;5026618;28;21905;-90
2021/01/24 15:31:19;;;;;;;6.30;1.10;;;;;;;;;;4924799;28;20037;-90
2021/01/24 15:34:01;;;;;;;7.80;1.30;;;;;;;;;;4931136;28;20033;-92
2021/01/24 15:36:34;;;;;;;6.22;1.40;;;;;;;;;;4971174;27;20037;-91